Briefing drone pour Saint-just-saint-rambert

Rechercher une autre localisation

Conditions de vol :


Nous sommes le : Mercredi 25 mai 2022
Il est 01:01 UTC (03:01 LT)

Lever de soleil : 03:36 UTC (05:36 LT)
Coucher de soleil : 19:43 UTC (21:43 LT)

Météo

L'essentiel des conditions de vol

VIGILANCE MÉTÉO FRANCE - Loire (42)
Pas de vigilances particulieres
CARTE TEMSI
CARTES DES FRONTS
METAR de LFMH
LFMH 250030Z AUTO 35005KT 320V020 9999 BKN054 OVC070 13/08 Q1015

Date d'émission: 25/05/2022
Heure d'émission: 00:30 UTC
Vent: 350° (variable du 320° au 020°) pour 5 KT (9 km/h)
Visibilité horizontale: > 10 km
Plafond :
- Nuages morcelés à 5400ft (1646m)
- Couvert à 7000ft (2134m)
Température: 13 °C
Point de rosée: 8 °C
Humidité: 72%
Pression (QNH): 1015 hPa
TAF de LFMH
LFMH 161901Z 1619/1712 CNL

Conditions prévues :

Heure d'émission : Bulletin éffectué le 16 à 19:00 UTC
Prévision : Valide du 16 a 19:00 UTC au 17 a 12:00 UTC
Nuages : à 0ft (0 m)
WEBCAM POUR SAINT-JUST-SAINT-RAMBERT

Réglementation

Voler en sécurité

CARTES AERONAUTIQUE 1/500.000
CARTES VAC (LFMH)
SUP AIP




Chargement des AIP...
NOTAM (SAINT-JUST-SAINT-RAMBERT + Terrain à proximité / FIR )




Chargement des NOTAMS...
CONTACT PREFECTURE 42


Avertissement : Les données mises à disposition sont indicatives. Oxygène Drone ne pourra être tenu responsable de dégâts causés aux biens et aux personnes.